sensor_id;sensor_type;location;lat;lon;timestamp;temperature;humidity
17607;DHT22;8922;52.240;20.980;2022-10-16T00:00:37;15.20;99.90
17607;DHT22;8922;52.240;20.980;2022-10-16T00:03:05;15.10;99.90
17607;DHT22;8922;52.240;20.980;2022-10-16T00:05:32;15.20;99.90
17607;DHT22;8922;52.240;20.980;2022-10-16T00:07:59;15.20;99.90
17607;DHT22;8922;52.240;20.980;2022-10-16T00:10:28;15.10;99.90
17607;DHT22;8922;52.240;20.980;2022-10-16T00:12:56;15.20;99.90
17607;DHT22;8922;52.240;20.980;2022-10-16T00:15:23;15.20;99.90
17607;DHT22;8922;52.240;20.980;2022-10-16T00:17:50;15.20;99.90
17607;DHT22;8922;52.240;20.980;2022-10-16T00:20:17;15.20;99.90
17607;DHT22;8922;52.240;20.980;2022-10-16T00:22:43;15.20;99.90
17607;DHT22;8922;52.240;20.980;2022-10-16T00:25:10;15.20;99.90
17607;DHT22;8922;52.240;20.980;2022-10-16T00:27:37;15.30;99.90
17607;DHT22;8922;52.240;20.980;2022-10-16T00:30:07;15.20;99.90
17607;DHT22;8922;52.240;20.980;2022-10-16T00:32:34;15.20;99.90
17607;DHT22;8922;52.240;20.980;2022-10-16T00:35:01;15.20;99.90
17607;DHT22;8922;52.240;20.980;2022-10-16T00:37:29;15.20;99.90
17607;DHT22;8922;52.240;20.980;2022-10-16T00:39:56;15.20;99.90
17607;DHT22;8922;52.240;20.980;2022-10-16T00:42:23;15.20;99.90
17607;DHT22;8922;52.240;20.980;2022-10-16T00:44:51;15.20;99.90
17607;DHT22;8922;52.240;20.980;2022-10-16T00:47:24;15.20;99.90
17607;DHT22;8922;52.240;20.980;2022-10-16T00:49:57;15.20;99.90
17607;DHT22;8922;52.240;20.980;2022-10-16T00:52:25;15.20;99.90
17607;DHT22;8922;52.240;20.980;2022-10-16T00:54:52;15.20;99.90
17607;DHT22;8922;52.240;20.980;2022-10-16T00:57:20;15.20;99.90
17607;DHT22;8922;52.240;20.980;2022-10-16T00:59:47;15.10;99.90
17607;DHT22;8922;52.240;20.980;2022-10-16T01:02:15;15.10;99.90
17607;DHT22;8922;52.240;20.980;2022-10-16T01:04:44;15.10;99.90
17607;DHT22;8922;52.240;20.980;2022-10-16T01:07:18;15.10;99.90
17607;DHT22;8922;52.240;20.980;2022-10-16T01:09:57;15.10;99.90
17607;DHT22;8922;52.240;20.980;2022-10-16T01:12:33;15.00;99.90
17607;DHT22;8922;52.240;20.980;2022-10-16T01:15:08;15.00;99.90
17607;DHT22;8922;52.240;20.980;2022-10-16T01:17:43;15.00;99.90
17607;DHT22;8922;52.240;20.980;2022-10-16T01:20:19;15.00;99.90
17607;DHT22;8922;52.240;20.980;2022-10-16T01:22:58;15.00;99.90
17607;DHT22;8922;52.240;20.980;2022-10-16T01:25:36;15.00;99.90
17607;DHT22;8922;52.240;20.980;2022-10-16T01:28:09;15.00;99.90
17607;DHT22;8922;52.240;20.980;2022-10-16T01:30:40;15.00;99.90
17607;DHT22;8922;52.240;20.980;2022-10-16T01:33:11;15.00;99.90
17607;DHT22;8922;52.240;20.980;2022-10-16T01:35:44;15.00;99.90
17607;DHT22;8922;52.240;20.980;2022-10-16T01:38:16;15.00;99.90
17607;DHT22;8922;52.240;20.980;2022-10-16T01:40:46;15.00;99.90
17607;DHT22;8922;52.240;20.980;2022-10-16T01:43:18;15.00;99.90
17607;DHT22;8922;52.240;20.980;2022-10-16T01:45:46;14.90;99.90
17607;DHT22;8922;52.240;20.980;2022-10-16T01:48:17;15.00;99.90
17607;DHT22;8922;52.240;20.980;2022-10-16T01:50:50;15.00;99.90
17607;DHT22;8922;52.240;20.980;2022-10-16T01:53:19;14.90;99.90
17607;DHT22;8922;52.240;20.980;2022-10-16T01:55:47;14.90;99.90
17607;DHT22;8922;52.240;20.980;2022-10-16T01:58:17;14.90;99.90
17607;DHT22;8922;52.240;20.980;2022-10-16T02:00:45;14.90;99.90
17607;DHT22;8922;52.240;20.980;2022-10-16T02:03:15;14.80;99.90
17607;DHT22;8922;52.240;20.980;2022-10-16T02:05:46;14.80;99.90
17607;DHT22;8922;52.240;20.980;2022-10-16T02:08:13;14.70;99.90
17607;DHT22;8922;52.240;20.980;2022-10-16T02:10:40;14.80;99.90
17607;DHT22;8922;52.240;20.980;2022-10-16T02:13:10;14.70;99.90
17607;DHT22;8922;52.240;20.980;2022-10-16T02:15:39;14.70;99.90
17607;DHT22;8922;52.240;20.980;2022-10-16T02:18:07;14.70;99.90
17607;DHT22;8922;52.240;20.980;2022-10-16T02:20:40;14.70;99.90
17607;DHT22;8922;52.240;20.980;2022-10-16T02:23:12;14.70;99.90
17607;DHT22;8922;52.240;20.980;2022-10-16T02:25:44;14.70;99.90
17607;DHT22;8922;52.240;20.980;2022-10-16T02:28:16;14.70;99.90
17607;DHT22;8922;52.240;20.980;2022-10-16T02:30:48;14.70;99.90
17607;DHT22;8922;52.240;20.980;2022-10-16T02:33:16;14.70;99.90
17607;DHT22;8922;52.240;20.980;2022-10-16T02:35:46;14.70;99.90
17607;DHT22;8922;52.240;20.980;2022-10-16T02:38:14;14.70;99.90
17607;DHT22;8922;52.240;20.980;2022-10-16T02:40:42;14.70;99.90
17607;DHT22;8922;52.240;20.980;2022-10-16T02:43:09;14.70;99.90
17607;DHT22;8922;52.240;20.980;2022-10-16T02:45:37;14.70;99.90
17607;DHT22;8922;52.240;20.980;2022-10-16T02:48:05;14.70;99.90
17607;DHT22;8922;52.240;20.980;2022-10-16T02:50:32;14.70;99.90
17607;DHT22;8922;52.240;20.980;2022-10-16T02:52:59;14.70;99.90
17607;DHT22;8922;52.240;20.980;2022-10-16T02:55:26;14.70;99.90
17607;DHT22;8922;52.240;20.980;2022-10-16T02:57:53;14.70;99.90
17607;DHT22;8922;52.240;20.980;2022-10-16T03:00:20;14.70;99.90
17607;DHT22;8922;52.240;20.980;2022-10-16T03:02:47;14.70;99.90
17607;DHT22;8922;52.240;20.980;2022-10-16T03:05:16;14.70;99.90
17607;DHT22;8922;52.240;20.980;2022-10-16T03:07:42;14.70;99.90
17607;DHT22;8922;52.240;20.980;2022-10-16T03:10:09;14.70;99.90
17607;DHT22;8922;52.240;20.980;2022-10-16T03:12:36;14.80;99.90
17607;DHT22;8922;52.240;20.980;2022-10-16T03:15:03;14.80;99.90
17607;DHT22;8922;52.240;20.980;2022-10-16T03:17:31;14.80;99.90
17607;DHT22;8922;52.240;20.980;2022-10-16T03:19:58;14.80;99.90
17607;DHT22;8922;52.240;20.980;2022-10-16T03:22:26;14.90;99.90
17607;DHT22;8922;52.240;20.980;2022-10-16T03:24:53;14.80;99.90
17607;DHT22;8922;52.240;20.980;2022-10-16T03:27:20;14.70;99.90
17607;DHT22;8922;52.240;20.980;2022-10-16T03:29:47;14.70;99.90
17607;DHT22;8922;52.240;20.980;2022-10-16T03:32:13;14.70;99.90
17607;DHT22;8922;52.240;20.980;2022-10-16T03:34:40;14.80;99.90
17607;DHT22;8922;52.240;20.980;2022-10-16T03:37:07;14.70;99.90
17607;DHT22;8922;52.240;20.980;2022-10-16T03:39:35;14.70;99.90
17607;DHT22;8922;52.240;20.980;2022-10-16T03:42:02;14.70;99.90
17607;DHT22;8922;52.240;20.980;2022-10-16T03:44:29;14.70;99.90
17607;DHT22;8922;52.240;20.980;2022-10-16T03:46:55;14.70;99.90
17607;DHT22;8922;52.240;20.980;2022-10-16T03:49:22;14.70;99.90
17607;DHT22;8922;52.240;20.980;2022-10-16T03:51:49;14.70;99.90
17607;DHT22;8922;52.240;20.980;2022-10-16T03:54:16;14.70;99.90
17607;DHT22;8922;52.240;20.980;2022-10-16T03:56:44;14.70;99.90
17607;DHT22;8922;52.240;20.980;2022-10-16T03:59:11;14.70;99.90
17607;DHT22;8922;52.240;20.980;2022-10-16T04:01:38;14.60;99.90
17607;DHT22;8922;52.240;20.980;2022-10-16T04:04:04;14.70;99.90
17607;DHT22;8922;52.240;20.980;2022-10-16T04:06:31;14.60;99.90
17607;DHT22;8922;52.240;20.980;2022-10-16T04:08:58;14.60;99.90
17607;DHT22;8922;52.240;20.980;2022-10-16T04:11:25;14.60;99.90
17607;DHT22;8922;52.240;20.980;2022-10-16T04:13:53;14.50;99.90
17607;DHT22;8922;52.240;20.980;2022-10-16T04:16:20;14.50;99.90
17607;DHT22;8922;52.240;20.980;2022-10-16T04:18:47;14.50;99.90
17607;DHT22;8922;52.240;20.980;2022-10-16T04:21:14;14.40;99.90
17607;DHT22;8922;52.240;20.980;2022-10-16T04:23:41;14.40;99.90
17607;DHT22;8922;52.240;20.980;2022-10-16T04:26:08;14.40;99.90
17607;DHT22;8922;52.240;20.980;2022-10-16T04:28:36;14.40;99.90
17607;DHT22;8922;52.240;20.980;2022-10-16T04:31:05;14.40;99.90
17607;DHT22;8922;52.240;20.980;2022-10-16T04:33:32;14.40;99.90
17607;DHT22;8922;52.240;20.980;2022-10-16T04:36:00;14.40;99.90
17607;DHT22;8922;52.240;20.980;2022-10-16T04:38:27;14.40;99.90
17607;DHT22;8922;52.240;20.980;2022-10-16T04:40:54;14.40;99.90
17607;DHT22;8922;52.240;20.980;2022-10-16T04:43:21;14.40;99.90
17607;DHT22;8922;52.240;20.980;2022-10-16T04:45:48;14.40;99.90
17607;DHT22;8922;52.240;20.980;2022-10-16T04:48:17;14.40;99.90
17607;DHT22;8922;52.240;20.980;2022-10-16T04:50:44;14.40;99.90
17607;DHT22;8922;52.240;20.980;2022-10-16T04:53:11;14.40;99.90
17607;DHT22;8922;52.240;20.980;2022-10-16T04:55:38;14.30;99.90
17607;DHT22;8922;52.240;20.980;2022-10-16T04:58:05;14.30;99.90
17607;DHT22;8922;52.240;20.980;2022-10-16T05:00:32;14.20;99.90
17607;DHT22;8922;52.240;20.980;2022-10-16T05:02:59;14.20;99.90
17607;DHT22;8922;52.240;20.980;2022-10-16T05:05:28;14.20;99.90
17607;DHT22;8922;52.240;20.980;2022-10-16T05:07:55;14.20;99.90
17607;DHT22;8922;52.240;20.980;2022-10-16T05:10:21;14.20;99.90
17607;DHT22;8922;52.240;20.980;2022-10-16T05:12:48;14.10;99.90
17607;DHT22;8922;52.240;20.980;2022-10-16T05:15:16;14.10;99.90
17607;DHT22;8922;52.240;20.980;2022-10-16T05:17:44;14.00;99.90
17607;DHT22;8922;52.240;20.980;2022-10-16T05:20:11;14.00;99.90
17607;DHT22;8922;52.240;20.980;2022-10-16T05:22:39;14.00;99.90
17607;DHT22;8922;52.240;20.980;2022-10-16T05:25:06;14.00;99.90
17607;DHT22;8922;52.240;20.980;2022-10-16T05:27:33;14.00;99.90
17607;DHT22;8922;52.240;20.980;2022-10-16T05:30:00;14.00;99.90
17607;DHT22;8922;52.240;20.980;2022-10-16T05:32:27;14.00;99.90
17607;DHT22;8922;52.240;20.980;2022-10-16T05:34:53;14.00;99.90
17607;DHT22;8922;52.240;20.980;2022-10-16T05:37:20;14.00;99.90
17607;DHT22;8922;52.240;20.980;2022-10-16T05:39:48;14.00;99.90
17607;DHT22;8922;52.240;20.980;2022-10-16T05:42:15;14.00;99.90
17607;DHT22;8922;52.240;20.980;2022-10-16T05:44:42;14.00;99.90
17607;DHT22;8922;52.240;20.980;2022-10-16T05:47:09;14.00;99.90
17607;DHT22;8922;52.240;20.980;2022-10-16T05:49:36;14.00;99.90
17607;DHT22;8922;52.240;20.980;2022-10-16T05:52:03;13.90;99.90
17607;DHT22;8922;52.240;20.980;2022-10-16T05:54:29;14.00;99.90
17607;DHT22;8922;52.240;20.980;2022-10-16T05:56:58;14.00;99.90
17607;DHT22;8922;52.240;20.980;2022-10-16T05:59:24;14.00;99.90
17607;DHT22;8922;52.240;20.980;2022-10-16T06:01:51;14.10;99.90
17607;DHT22;8922;52.240;20.980;2022-10-16T06:04:19;14.00;99.90
17607;DHT22;8922;52.240;20.980;2022-10-16T06:06:45;14.00;99.90
17607;DHT22;8922;52.240;20.980;2022-10-16T06:09:12;14.00;99.90
17607;DHT22;8922;52.240;20.980;2022-10-16T06:11:39;14.00;99.90
17607;DHT22;8922;52.240;20.980;2022-10-16T06:14:08;14.10;99.90
17607;DHT22;8922;52.240;20.980;2022-10-16T06:16:36;14.10;99.90
17607;DHT22;8922;52.240;20.980;2022-10-16T06:19:04;14.20;99.90
17607;DHT22;8922;52.240;20.980;2022-10-16T06:21:31;14.20;99.90
17607;DHT22;8922;52.240;20.980;2022-10-16T06:23:59;14.20;99.90
17607;DHT22;8922;52.240;20.980;2022-10-16T06:26:27;14.30;99.90
17607;DHT22;8922;52.240;20.980;2022-10-16T06:28:54;14.30;99.90
17607;DHT22;8922;52.240;20.980;2022-10-16T06:31:25;14.40;99.90
17607;DHT22;8922;52.240;20.980;2022-10-16T06:33:54;14.50;99.90
17607;DHT22;8922;52.240;20.980;2022-10-16T06:36:21;14.60;99.90
17607;DHT22;8922;52.240;20.980;2022-10-16T06:38:48;14.60;99.90
17607;DHT22;8922;52.240;20.980;2022-10-16T06:41:17;14.70;99.90
17607;DHT22;8922;52.240;20.980;2022-10-16T06:43:44;14.70;99.90
17607;DHT22;8922;52.240;20.980;2022-10-16T06:46:13;14.80;99.90
17607;DHT22;8922;52.240;20.980;2022-10-16T06:48:41;14.90;99.90
17607;DHT22;8922;52.240;20.980;2022-10-16T06:51:10;15.00;99.90
17607;DHT22;8922;52.240;20.980;2022-10-16T06:53:40;15.20;99.90
17607;DHT22;8922;52.240;20.980;2022-10-16T06:56:08;15.50;99.90
17607;DHT22;8922;52.240;20.980;2022-10-16T06:58:35;15.90;99.90
17607;DHT22;8922;52.240;20.980;2022-10-16T07:01:02;16.10;99.90
17607;DHT22;8922;52.240;20.980;2022-10-16T07:03:29;16.30;99.90
17607;DHT22;8922;52.240;20.980;2022-10-16T07:06:01;16.50;99.90
17607;DHT22;8922;52.240;20.980;2022-10-16T07:08:31;16.60;99.90
17607;DHT22;8922;52.240;20.980;2022-10-16T07:10:59;16.60;99.90
17607;DHT22;8922;52.240;20.980;2022-10-16T07:13:26;16.50;99.90
17607;DHT22;8922;52.240;20.980;2022-10-16T07:15:52;16.40;99.90
17607;DHT22;8922;52.240;20.980;2022-10-16T07:18:19;16.40;99.90
17607;DHT22;8922;52.240;20.980;2022-10-16T07:20:47;16.20;99.90
17607;DHT22;8922;52.240;20.980;2022-10-16T07:23:15;16.10;99.90
17607;DHT22;8922;52.240;20.980;2022-10-16T07:25:42;16.00;99.90
17607;DHT22;8922;52.240;20.980;2022-10-16T07:28:08;16.00;99.90
17607;DHT22;8922;52.240;20.980;2022-10-16T07:30:36;15.90;99.90
17607;DHT22;8922;52.240;20.980;2022-10-16T07:33:03;15.90;99.90
17607;DHT22;8922;52.240;20.980;2022-10-16T07:35:30;15.90;99.90
17607;DHT22;8922;52.240;20.980;2022-10-16T07:37:57;16.00;99.90
17607;DHT22;8922;52.240;20.980;2022-10-16T07:40:25;16.00;99.90
17607;DHT22;8922;52.240;20.980;2022-10-16T07:42:53;16.10;99.90
17607;DHT22;8922;52.240;20.980;2022-10-16T07:45:20;16.10;99.90
17607;DHT22;8922;52.240;20.980;2022-10-16T07:47:47;16.30;99.90
17607;DHT22;8922;52.240;20.980;2022-10-16T07:50:14;16.40;99.90
17607;DHT22;8922;52.240;20.980;2022-10-16T07:52:40;16.70;99.90
17607;DHT22;8922;52.240;20.980;2022-10-16T07:55:08;17.00;99.90
17607;DHT22;8922;52.240;20.980;2022-10-16T07:57:36;17.40;99.90
17607;DHT22;8922;52.240;20.980;2022-10-16T08:00:03;17.80;99.90
17607;DHT22;8922;52.240;20.980;2022-10-16T08:02:33;18.10;99.90
17607;DHT22;8922;52.240;20.980;2022-10-16T08:05:00;18.50;99.90
17607;DHT22;8922;52.240;20.980;2022-10-16T08:07:29;18.80;99.90
17607;DHT22;8922;52.240;20.980;2022-10-16T08:09:56;19.10;99.90
17607;DHT22;8922;52.240;20.980;2022-10-16T08:12:24;19.30;99.90
17607;DHT22;8922;52.240;20.980;2022-10-16T08:14:52;19.60;99.90
17607;DHT22;8922;52.240;20.980;2022-10-16T08:17:19;19.80;99.90
17607;DHT22;8922;52.240;20.980;2022-10-16T08:19:46;20.00;99.90
17607;DHT22;8922;52.240;20.980;2022-10-16T08:22:13;20.10;99.90
17607;DHT22;8922;52.240;20.980;2022-10-16T08:24:40;20.20;99.90
17607;DHT22;8922;52.240;20.980;2022-10-16T08:27:07;20.20;99.90
17607;DHT22;8922;52.240;20.980;2022-10-16T08:29:34;20.20;99.90
17607;DHT22;8922;52.240;20.980;2022-10-16T08:32:03;20.40;99.90
17607;DHT22;8922;52.240;20.980;2022-10-16T08:34:30;20.60;99.90
17607;DHT22;8922;52.240;20.980;2022-10-16T08:36:57;20.80;99.90
17607;DHT22;8922;52.240;20.980;2022-10-16T08:39:24;21.00;99.90
17607;DHT22;8922;52.240;20.980;2022-10-16T08:42:09;21.10;99.90
17607;DHT22;8922;52.240;20.980;2022-10-16T08:45:10;21.10;99.90
17607;DHT22;8922;52.240;20.980;2022-10-16T08:47:48;21.20;99.90
17607;DHT22;8922;52.240;20.980;2022-10-16T08:50:21;21.20;99.90
17607;DHT22;8922;52.240;20.980;2022-10-16T08:52:49;21.20;99.90
17607;DHT22;8922;52.240;20.980;2022-10-16T08:55:30;21.30;99.90
17607;DHT22;8922;52.240;20.980;2022-10-16T08:57:59;21.60;99.90
17607;DHT22;8922;52.240;20.980;2022-10-16T09:00:26;22.60;99.90
17607;DHT22;8922;52.240;20.980;2022-10-16T09:03:00;23.10;99.90
17607;DHT22;8922;52.240;20.980;2022-10-16T09:08:30;23.90;98.80
17607;DHT22;8922;52.240;20.980;2022-10-16T09:11:05;24.10;97.80
17607;DHT22;8922;52.240;20.980;2022-10-16T09:13:40;24.30;96.40
17607;DHT22;8922;52.240;20.980;2022-10-16T09:16:16;24.40;95.80
17607;DHT22;8922;52.240;20.980;2022-10-16T09:18:54;24.60;96.10
17607;DHT22;8922;52.240;20.980;2022-10-16T09:21:28;25.80;94.10
17607;DHT22;8922;52.240;20.980;2022-10-16T09:23:58;26.70;91.30
17607;DHT22;8922;52.240;20.980;2022-10-16T09:26:26;27.50;88.60
17607;DHT22;8922;52.240;20.980;2022-10-16T09:28:53;28.40;82.30
17607;DHT22;8922;52.240;20.980;2022-10-16T09:31:21;28.70;76.10
17607;DHT22;8922;52.240;20.980;2022-10-16T09:33:53;28.20;74.10
17607;DHT22;8922;52.240;20.980;2022-10-16T09:36:23;27.70;75.50
17607;DHT22;8922;52.240;20.980;2022-10-16T09:39:03;27.50;75.10
17607;DHT22;8922;52.240;20.980;2022-10-16T09:41:33;27.10;75.90
17607;DHT22;8922;52.240;20.980;2022-10-16T09:44:02;26.70;75.70
17607;DHT22;8922;52.240;20.980;2022-10-16T09:46:31;26.30;77.10
17607;DHT22;8922;52.240;20.980;2022-10-16T09:49:01;25.70;78.20
17607;DHT22;8922;52.240;20.980;2022-10-16T09:51:30;25.30;80.50
17607;DHT22;8922;52.240;20.980;2022-10-16T09:53:59;25.10;81.90
17607;DHT22;8922;52.240;20.980;2022-10-16T09:56:27;25.20;84.10
17607;DHT22;8922;52.240;20.980;2022-10-16T09:58:56;26.40;84.90
17607;DHT22;8922;52.240;20.980;2022-10-16T10:01:36;27.70;76.90
17607;DHT22;8922;52.240;20.980;2022-10-16T10:04:05;28.40;73.10
17607;DHT22;8922;52.240;20.980;2022-10-16T10:06:34;28.90;70.80
17607;DHT22;8922;52.240;20.980;2022-10-16T10:09:15;29.20;70.00
17607;DHT22;8922;52.240;20.980;2022-10-16T10:11:46;28.90;67.40
17607;DHT22;8922;52.240;20.980;2022-10-16T10:14:21;28.60;68.70
17607;DHT22;8922;52.240;20.980;2022-10-16T10:16:49;28.50;70.30
17607;DHT22;8922;52.240;20.980;2022-10-16T10:19:20;29.10;69.40
17607;DHT22;8922;52.240;20.980;2022-10-16T10:21:48;29.60;66.90
17607;DHT22;8922;52.240;20.980;2022-10-16T10:24:16;30.00;66.50
17607;DHT22;8922;52.240;20.980;2022-10-16T10:26:49;30.50;64.50
17607;DHT22;8922;52.240;20.980;2022-10-16T10:29:28;31.40;61.90
17607;DHT22;8922;52.240;20.980;2022-10-16T10:32:08;32.20;58.80
17607;DHT22;8922;52.240;20.980;2022-10-16T10:34:48;32.30;56.80
17607;DHT22;8922;52.240;20.980;2022-10-16T10:37:29;31.90;56.50
17607;DHT22;8922;52.240;20.980;2022-10-16T10:40:08;30.90;57.30
17607;DHT22;8922;52.240;20.980;2022-10-16T10:42:43;29.80;58.30
17607;DHT22;8922;52.240;20.980;2022-10-16T10:45:18;28.70;60.00
17607;DHT22;8922;52.240;20.980;2022-10-16T10:47:58;27.80;63.30
17607;DHT22;8922;52.240;20.980;2022-10-16T10:50:33;26.90;65.50
17607;DHT22;8922;52.240;20.980;2022-10-16T10:53:06;26.30;67.80
17607;DHT22;8922;52.240;20.980;2022-10-16T10:55:43;25.60;70.00
17607;DHT22;8922;52.240;20.980;2022-10-16T10:59:01;25.20;72.00
17607;DHT22;8922;52.240;20.980;2022-10-16T11:01:36;25.00;73.10
17607;DHT22;8922;52.240;20.980;2022-10-16T11:04:27;25.00;73.10
17607;DHT22;8922;52.240;20.980;2022-10-16T11:06:59;25.00;74.00
17607;DHT22;8922;52.240;20.980;2022-10-16T11:09:30;25.00;74.50
17607;DHT22;8922;52.240;20.980;2022-10-16T11:12:02;25.00;74.00
17607;DHT22;8922;52.240;20.980;2022-10-16T11:14:35;24.90;74.80
17607;DHT22;8922;52.240;20.980;2022-10-16T11:17:08;25.00;75.20
17607;DHT22;8922;52.240;20.980;2022-10-16T11:19:41;25.00;74.70
17607;DHT22;8922;52.240;20.980;2022-10-16T11:22:16;24.70;75.10
17607;DHT22;8922;52.240;20.980;2022-10-16T11:24:47;24.90;76.00
17607;DHT22;8922;52.240;20.980;2022-10-16T11:27:19;25.20;78.80
17607;DHT22;8922;52.240;20.980;2022-10-16T11:29:58;26.10;75.30
17607;DHT22;8922;52.240;20.980;2022-10-16T11:32:34;26.80;72.70
17607;DHT22;8922;52.240;20.980;2022-10-16T11:35:06;27.20;70.30
17607;DHT22;8922;52.240;20.980;2022-10-16T11:37:42;27.10;69.50
17607;DHT22;8922;52.240;20.980;2022-10-16T11:40:20;27.40;69.20
17607;DHT22;8922;52.240;20.980;2022-10-16T11:42:54;27.30;68.30
17607;DHT22;8922;52.240;20.980;2022-10-16T11:45:32;26.80;69.00
17607;DHT22;8922;52.240;20.980;2022-10-16T11:48:03;26.30;70.50
17607;DHT22;8922;52.240;20.980;2022-10-16T11:50:34;26.60;75.60
17607;DHT22;8922;52.240;20.980;2022-10-16T11:53:12;28.40;70.30
17607;DHT22;8922;52.240;20.980;2022-10-16T11:55:41;29.80;65.00
17607;DHT22;8922;52.240;20.980;2022-10-16T11:58:15;30.50;61.20
17607;DHT22;8922;52.240;20.980;2022-10-16T12:00:46;30.30;59.90
17607;DHT22;8922;52.240;20.980;2022-10-16T12:03:19;29.50;60.50
17607;DHT22;8922;52.240;20.980;2022-10-16T12:05:55;28.60;62.60
17607;DHT22;8922;52.240;20.980;2022-10-16T12:08:25;27.60;64.80
17607;DHT22;8922;52.240;20.980;2022-10-16T12:10:52;26.80;67.30
17607;DHT22;8922;52.240;20.980;2022-10-16T12:13:32;26.20;69.40
17607;DHT22;8922;52.240;20.980;2022-10-16T12:16:07;25.70;71.10
17607;DHT22;8922;52.240;20.980;2022-10-16T12:18:47;25.40;72.00
17607;DHT22;8922;52.240;20.980;2022-10-16T12:21:16;25.10;73.40
17607;DHT22;8922;52.240;20.980;2022-10-16T12:23:49;25.30;74.10
17607;DHT22;8922;52.240;20.980;2022-10-16T12:26:24;25.40;73.50
17607;DHT22;8922;52.240;20.980;2022-10-16T12:28:52;25.40;73.40
17607;DHT22;8922;52.240;20.980;2022-10-16T12:31:19;25.30;73.30
17607;DHT22;8922;52.240;20.980;2022-10-16T12:33:57;25.00;74.00
17607;DHT22;8922;52.240;20.980;2022-10-16T12:36:29;24.80;74.70
17607;DHT22;8922;52.240;20.980;2022-10-16T12:38:59;24.60;75.60
17607;DHT22;8922;52.240;20.980;2022-10-16T12:41:28;24.40;76.00
17607;DHT22;8922;52.240;20.980;2022-10-16T12:43:55;24.30;76.80
17607;DHT22;8922;52.240;20.980;2022-10-16T12:46:37;24.00;77.10
17607;DHT22;8922;52.240;20.980;2022-10-16T12:49:19;23.70;78.60
17607;DHT22;8922;52.240;20.980;2022-10-16T12:51:47;23.40;79.50
17607;DHT22;8922;52.240;20.980;2022-10-16T12:54:17;23.10;80.60
17607;DHT22;8922;52.240;20.980;2022-10-16T12:56:53;22.90;81.40
17607;DHT22;8922;52.240;20.980;2022-10-16T12:59:29;22.70;82.00
17607;DHT22;8922;52.240;20.980;2022-10-16T13:02:16;22.50;83.60
17607;DHT22;8922;52.240;20.980;2022-10-16T13:07:56;22.00;85.20
17607;DHT22;8922;52.240;20.980;2022-10-16T13:10:32;21.80;86.50
17607;DHT22;8922;52.240;20.980;2022-10-16T13:13:19;21.60;87.30
17607;DHT22;8922;52.240;20.980;2022-10-16T13:16:02;21.40;88.70
17607;DHT22;8922;52.240;20.980;2022-10-16T13:18:42;21.20;89.80
17607;DHT22;8922;52.240;20.980;2022-10-16T13:21:25;21.10;90.30
17607;DHT22;8922;52.240;20.980;2022-10-16T13:24:00;21.00;90.70
17607;DHT22;8922;52.240;20.980;2022-10-16T13:26:35;20.90;91.20
17607;DHT22;8922;52.240;20.980;2022-10-16T13:29:05;20.80;91.60
17607;DHT22;8922;52.240;20.980;2022-10-16T13:31:32;20.80;92.10
17607;DHT22;8922;52.240;20.980;2022-10-16T13:34:00;20.70;92.50
17607;DHT22;8922;52.240;20.980;2022-10-16T13:36:29;20.60;92.90
17607;DHT22;8922;52.240;20.980;2022-10-16T13:39:03;20.50;93.30
17607;DHT22;8922;52.240;20.980;2022-10-16T13:41:34;20.50;93.80
17607;DHT22;8922;52.240;20.980;2022-10-16T13:44:01;20.40;94.10
17607;DHT22;8922;52.240;20.980;2022-10-16T13:46:28;20.40;94.60
17607;DHT22;8922;52.240;20.980;2022-10-16T13:49:00;20.40;94.90
17607;DHT22;8922;52.240;20.980;2022-10-16T13:51:28;20.30;95.30
17607;DHT22;8922;52.240;20.980;2022-10-16T13:53:57;20.30;95.80
17607;DHT22;8922;52.240;20.980;2022-10-16T13:56:26;20.40;96.20
17607;DHT22;8922;52.240;20.980;2022-10-16T13:59:03;20.30;96.50
17607;DHT22;8922;52.240;20.980;2022-10-16T14:01:31;20.30;96.90
17607;DHT22;8922;52.240;20.980;2022-10-16T14:04:02;20.40;97.10
17607;DHT22;8922;52.240;20.980;2022-10-16T14:06:31;20.40;97.50
17607;DHT22;8922;52.240;20.980;2022-10-16T14:09:01;20.40;97.80
17607;DHT22;8922;52.240;20.980;2022-10-16T14:11:28;20.40;98.20
17607;DHT22;8922;52.240;20.980;2022-10-16T14:13:55;20.40;98.40
17607;DHT22;8922;52.240;20.980;2022-10-16T14:16:26;20.30;98.60
17607;DHT22;8922;52.240;20.980;2022-10-16T14:18:57;20.30;99.00
17607;DHT22;8922;52.240;20.980;2022-10-16T14:21:25;20.30;99.30
17607;DHT22;8922;52.240;20.980;2022-10-16T14:23:52;20.20;99.70
17607;DHT22;8922;52.240;20.980;2022-10-16T14:26:22;20.20;99.90
17607;DHT22;8922;52.240;20.980;2022-10-16T14:29:00;20.20;99.90
17607;DHT22;8922;52.240;20.980;2022-10-16T14:31:31;20.20;99.90
17607;DHT22;8922;52.240;20.980;2022-10-16T14:33:59;20.20;99.90
17607;DHT22;8922;52.240;20.980;2022-10-16T14:36:27;20.20;99.90
17607;DHT22;8922;52.240;20.980;2022-10-16T14:38:59;20.10;99.90
17607;DHT22;8922;52.240;20.980;2022-10-16T14:41:27;20.10;99.90
17607;DHT22;8922;52.240;20.980;2022-10-16T14:43:56;20.20;99.90
17607;DHT22;8922;52.240;20.980;2022-10-16T14:46:31;20.10;99.90
17607;DHT22;8922;52.240;20.980;2022-10-16T14:49:02;20.10;99.90
17607;DHT22;8922;52.240;20.980;2022-10-16T14:51:30;20.10;99.90
17607;DHT22;8922;52.240;20.980;2022-10-16T14:53:57;20.10;99.90
17607;DHT22;8922;52.240;20.980;2022-10-16T14:56:25;20.00;99.90
17607;DHT22;8922;52.240;20.980;2022-10-16T14:58:53;20.00;99.90
17607;DHT22;8922;52.240;20.980;2022-10-16T15:01:21;20.00;99.90
17607;DHT22;8922;52.240;20.980;2022-10-16T15:03:50;20.00;99.90
17607;DHT22;8922;52.240;20.980;2022-10-16T15:06:19;20.00;99.90
17607;DHT22;8922;52.240;20.980;2022-10-16T15:08:46;19.90;99.90
17607;DHT22;8922;52.240;20.980;2022-10-16T15:11:15;19.90;99.90
17607;DHT22;8922;52.240;20.980;2022-10-16T15:13:42;19.90;99.90
17607;DHT22;8922;52.240;20.980;2022-10-16T15:16:11;19.90;99.90
17607;DHT22;8922;52.240;20.980;2022-10-16T15:18:38;19.80;99.90
17607;DHT22;8922;52.240;20.980;2022-10-16T15:21:06;19.80;99.90
17607;DHT22;8922;52.240;20.980;2022-10-16T15:23:33;19.80;99.90
17607;DHT22;8922;52.240;20.980;2022-10-16T15:26:00;19.70;99.90
17607;DHT22;8922;52.240;20.980;2022-10-16T15:28:27;19.70;99.90
17607;DHT22;8922;52.240;20.980;2022-10-16T15:30:55;19.70;99.90
17607;DHT22;8922;52.240;20.980;2022-10-16T15:33:25;19.70;99.90
17607;DHT22;8922;52.240;20.980;2022-10-16T15:35:53;19.70;99.90
17607;DHT22;8922;52.240;20.980;2022-10-16T15:38:22;19.60;99.90
17607;DHT22;8922;52.240;20.980;2022-10-16T15:40:49;19.60;99.90
17607;DHT22;8922;52.240;20.980;2022-10-16T15:43:17;19.50;99.90
17607;DHT22;8922;52.240;20.980;2022-10-16T15:45:44;19.50;99.90
17607;DHT22;8922;52.240;20.980;2022-10-16T15:48:11;19.50;99.90
17607;DHT22;8922;52.240;20.980;2022-10-16T15:50:39;19.40;99.90
17607;DHT22;8922;52.240;20.980;2022-10-16T15:53:08;19.40;99.90